Time;durP1;ratioP1;P1;durP2;ratioP2;P2;SDS_P1;SDS_P2;PMS_P1;PMS_P2;Temp;Humidity;BMP_temperature;BMP_pressure;BME280_temperature;BME280_humidity;BME280_pressure;Samples;Min_cycle;Max_cycle;Signal;HPM_P1;HPM_P2
2022/03/28 11:13:30;;;;;;;6.20;2.10;;;;;;;21.48;37.03;100879.88;10221088;27;43734;-66
2022/03/28 11:18:28;;;;;;;2.60;2.30;;;;;;;21.64;36.57;100878.38;10200568;27;64898;-64
2022/03/28 11:23:20;;;;;;;4.80;2.70;;;;;;;21.76;35.80;100864.06;10194940;27;64461;-68
2022/03/28 11:28:20;;;;;;;8.15;2.90;;;;;;;21.81;35.46;100862.00;10198320;27;66396;-66
2022/03/28 11:33:14;;;;;;;5.57;4.10;;;;;;;21.81;34.90;100856.50;10196900;27;66183;-61
2022/03/28 11:38:07;;;;;;;5.75;4.20;;;;;;;21.82;33.60;100838.00;10200415;27;65385;-63
2022/03/28 11:42:59;;;;;;;5.78;4.00;;;;;;;21.81;34.19;100839.09;10197262;27;65359;-62
2022/03/28 11:47:59;;;;;;;6.28;3.90;;;;;;;21.81;34.13;100837.16;10199655;27;63841;-62
2022/03/28 11:53:14;;;;;;;8.55;5.20;;;;;;;21.74;33.70;100828.50;10187551;27;66400;-60
2022/03/28 11:58:19;;;;;;;15.90;5.20;;;;;;;21.81;33.74;100819.78;10199551;27;66413;-61
2022/03/28 12:03:11;;;;;;;11.70;4.75;;;;;;;21.84;33.76;100811.72;10199324;27;65593;-65
2022/03/28 12:08:08;;;;;;;5.25;3.50;;;;;;;21.88;33.95;100798.91;10197028;27;64268;-66
2022/03/28 12:13:04;;;;;;;6.65;4.03;;;;;;;21.94;33.95;100777.50;10171551;27;66320;-65
2022/03/28 12:17:58;;;;;;;4.38;2.92;;;;;;;21.92;34.14;100769.56;10187068;27;65605;-66
2022/03/28 12:22:50;;;;;;;5.72;2.80;;;;;;;21.97;34.29;100765.88;10182987;27;66379;-68
2022/03/28 12:27:42;;;;;;;3.50;3.20;;;;;;;22.04;33.86;100755.19;10172018;27;66346;-64
2022/03/28 12:32:36;;;;;;;5.60;3.10;;;;;;;22.08;33.86;100751.47;10168567;27;66528;-67
2022/03/28 12:37:28;;;;;;;3.55;2.80;;;;;;;22.05;34.05;100738.31;10169560;28;66457;-67
2022/03/28 12:42:26;;;;;;;4.47;2.85;;;;;;;22.10;34.11;100722.75;10178480;27;64284;-67
2022/03/28 12:47:19;;;;;;;4.90;3.05;;;;;;;22.12;33.97;100721.31;10170495;27;65472;-66
2022/03/28 12:52:14;;;;;;;3.67;3.10;;;;;;;22.10;34.33;100706.16;10171349;27;66487;-68
2022/03/28 12:57:06;;;;;;;4.20;3.42;;;;;;;22.13;34.35;100702.78;10169541;27;66428;-64
2022/03/28 13:02:07;;;;;;;4.40;3.05;;;;;;;22.15;34.22;100683.97;10167811;27;63845;-69
2022/03/28 13:07:00;;;;;;;4.45;3.13;;;;;;;22.19;34.07;100673.91;10168679;28;65523;-67
2022/03/28 13:11:54;;;;;;;3.47;2.70;;;;;;;22.16;34.20;100669.00;10168542;27;65851;-65
2022/03/28 13:16:46;;;;;;;6.20;3.80;;;;;;;22.23;33.89;100661.09;10169234;27;66329;-67
2022/03/28 13:21:39;;;;;;;7.90;4.30;;;;;;;22.18;33.69;100656.50;10170043;27;66310;-64
2022/03/28 13:26:38;;;;;;;6.85;3.97;;;;;;;22.17;33.53;100648.53;10168003;28;65514;-66
2022/03/28 13:31:32;;;;;;;6.15;4.68;;;;;;;22.08;33.49;100640.25;10169095;27;66392;-66
2022/03/28 13:36:24;;;;;;;5.28;4.30;;;;;;;22.03;33.61;100621.03;10166798;27;66429;-64
2022/03/28 13:41:16;;;;;;;8.10;4.60;;;;;;;22.08;33.59;100626.44;10169863;27;65698;-66
2022/03/28 13:46:11;;;;;;;8.32;4.47;;;;;;;22.13;33.61;100618.00;10168261;27;65450;-67
2022/03/28 13:51:04;;;;;;;7.57;4.40;;;;;;;22.14;33.37;100605.00;10167450;27;65525;-67
2022/03/28 13:55:56;;;;;;;5.18;4.10;;;;;;;22.18;33.37;100593.00;10196775;27;66188;-66
2022/03/28 14:00:49;;;;;;;12.07;5.93;;;;;;;22.14;33.27;100597.53;10168117;27;65327;-61
2022/03/28 14:05:41;;;;;;;6.68;4.28;;;;;;;22.05;33.64;100583.69;10168617;27;65701;-68
2022/03/28 14:10:34;;;;;;;8.13;4.72;;;;;;;22.14;33.25;100571.88;10166149;27;65609;-64
2022/03/28 14:15:26;;;;;;;6.72;4.75;;;;;;;22.10;33.47;100570.88;10163798;27;65603;-68
2022/03/28 14:20:19;;;;;;;8.25;4.50;;;;;;;22.18;33.28;100568.13;10167483;27;66328;-69
2022/03/28 14:25:11;;;;;;;7.05;4.78;;;;;;;22.18;33.44;100559.84;10168103;27;65781;-63
2022/03/28 14:30:05;;;;;;;5.50;4.35;;;;;;;22.10;33.36;100548.78;10166805;27;65705;-64
2022/03/28 14:34:58;;;;;;;9.75;4.18;;;;;;;22.08;33.53;100552.66;10132892;28;66446;-63
2022/03/28 14:39:50;;;;;;;5.32;4.47;;;;;;;22.03;33.15;100552.00;10169451;27;66128;-64
2022/03/28 14:44:43;;;;;;;5.50;4.43;;;;;;;22.07;33.18;100544.72;10166631;27;65796;-65
2022/03/28 14:49:37;;;;;;;10.48;4.93;;;;;;;22.03;33.26;100529.91;10164544;27;65502;-62
2022/03/28 14:54:29;;;;;;;18.15;4.50;;;;;;;22.04;33.12;100523.25;10164784;28;66310;-62
2022/03/28 14:59:21;;;;;;;7.28;3.97;;;;;;;21.97;32.94;100515.47;10167124;27;65612;-64
2022/03/28 15:04:13;;;;;;;7.75;3.90;;;;;;;21.89;33.11;100521.72;10166189;27;65678;-65
2022/03/28 15:09:06;;;;;;;5.57;3.80;;;;;;;21.94;32.83;100512.47;10164473;27;66397;-63
2022/03/28 15:13:58;;;;;;;6.28;3.60;;;;;;;21.91;32.97;100497.38;10159731;27;66239;-62
2022/03/28 15:18:50;;;;;;;6.20;3.85;;;;;;;21.92;32.61;100501.78;10168352;28;66296;-62
2022/03/28 15:23:43;;;;;;;5.65;3.70;;;;;;;21.87;32.86;100481.75;10164553;27;66155;-62
2022/03/28 15:28:36;;;;;;;5.47;4.10;;;;;;;21.86;32.61;100485.69;10164265;27;65319;-62
2022/03/28 15:33:28;;;;;;;5.13;3.47;;;;;;;21.83;32.50;100487.13;10164648;27;65498;-61
2022/03/28 15:38:20;;;;;;;5.47;3.78;;;;;;;21.82;32.59;100474.47;10163634;27;65709;-63
2022/03/28 15:43:12;;;;;;;5.72;4.30;;;;;;;21.82;32.41;100468.94;10164622;27;66321;-63
2022/03/28 15:48:05;;;;;;;7.85;4.07;;;;;;;21.77;32.10;100463.56;10163741;27;64824;-62
2022/03/28 15:52:57;;;;;;;8.65;5.38;;;;;;;21.74;31.32;100452.34;10164115;27;66179;-62
2022/03/28 15:57:49;;;;;;;7.93;4.45;;;;;;;21.69;31.72;100454.13;10167198;27;65501;-63
2022/03/28 16:02:42;;;;;;;5.55;4.53;;;;;;;21.72;31.15;100449.91;10172309;27;66028;-62
2022/03/28 16:07:36;;;;;;;6.05;4.00;;;;;;;21.68;30.64;100451.69;10170740;27;66414;-62
2022/03/28 16:12:28;;;;;;;10.15;4.32;;;;;;;21.66;30.93;100448.44;10170295;27;66386;-62
2022/03/28 16:17:20;;;;;;;8.05;3.97;;;;;;;21.62;31.00;100439.19;10169847;27;65519;-63
2022/03/28 16:22:12;;;;;;;7.57;3.70;;;;;;;21.57;30.59;100434.59;10172186;27;67022;-62
2022/03/28 16:27:06;;;;;;;9.02;4.18;;;;;;;21.65;31.15;100427.47;10164336;27;65552;-65
2022/03/28 16:31:58;;;;;;;7.63;4.07;;;;;;;21.52;30.31;100415.44;10169048;27;66372;-63
2022/03/28 16:36:50;;;;;;;9.02;3.92;;;;;;;21.57;30.05;100415.28;10168192;27;66045;-64
2022/03/28 16:41:43;;;;;;;7.35;3.70;;;;;;;21.56;29.45;100410.91;10170695;27;65747;-64
2022/03/28 16:46:37;;;;;;;5.53;4.05;;;;;;;21.51;28.33;100415.75;10168866;27;64545;-64
2022/03/28 16:51:29;;;;;;;8.20;3.70;;;;;;;21.50;28.87;100409.41;10167994;27;65072;-62
2022/03/28 16:56:21;;;;;;;8.93;4.03;;;;;;;21.42;28.37;100404.69;10169568;27;65592;-62
2022/03/28 17:01:14;;;;;;;6.30;3.47;;;;;;;21.36;29.25;100394.94;10170058;27;66394;-63
2022/03/28 17:06:08;;;;;;;7.68;3.83;;;;;;;21.35;29.59;100393.31;10169850;28;66189;-63
2022/03/28 17:11:00;;;;;;;11.80;3.88;;;;;;;21.29;29.64;100392.66;10167872;28;65036;-63
2022/03/28 17:15:52;;;;;;;9.75;3.70;;;;;;;21.20;29.17;100388.22;10168986;27;66380;-62
2022/03/28 17:20:44;;;;;;;7.18;4.00;;;;;;;21.13;28.12;100377.63;10169006;27;66431;-63
2022/03/28 17:25:38;;;;;;;5.15;3.60;;;;;;;21.20;29.42;100371.66;10169042;27;66896;-63
2022/03/28 17:30:30;;;;;;;3.95;2.92;;;;;;;21.25;29.78;100374.31;10166306;27;66349;-62
2022/03/28 17:35:22;;;;;;;7.47;3.53;;;;;;;21.24;30.16;100367.16;10166650;27;65726;-63
2022/03/28 17:40:21;;;;;;;7.53;3.40;;;;;;;21.24;30.50;100365.22;10168077;27;65683;-62
2022/03/28 17:45:14;;;;;;;4.78;3.05;;;;;;;21.23;30.90;100368.28;10168626;27;66350;-61
2022/03/28 17:50:06;;;;;;;5.70;3.38;;;;;;;21.26;31.14;100359.38;10168073;27;65548;-61
2022/03/28 17:54:58;;;;;;;4.95;2.80;;;;;;;21.25;31.26;100358.56;10167320;27;66430;-61
2022/03/28 17:59:50;;;;;;;5.40;2.72;;;;;;;21.26;31.51;100349.19;10164907;27;66377;-62
2022/03/28 18:04:43;;;;;;;5.90;2.88;;;;;;;21.26;31.79;100351.94;10166794;27;65604;-62
2022/03/28 18:09:36;;;;;;;6.32;3.20;;;;;;;21.26;32.10;100351.94;10165047;27;65478;-62
2022/03/28 18:14:28;;;;;;;8.10;2.78;;;;;;;21.24;32.19;100351.44;10165492;27;65530;-61
2022/03/28 18:19:20;;;;;;;3.90;2.80;;;;;;;21.24;32.35;100353.38;10166458;27;66292;-62
2022/03/28 18:24:14;;;;;;;5.88;2.40;;;;;;;21.23;32.51;100355.31;10167484;27;65610;-62
2022/03/28 18:29:06;;;;;;;6.82;2.45;;;;;;;21.29;33.11;100350.47;10159142;27;66419;-67
2022/03/28 18:33:58;;;;;;;7.20;2.83;;;;;;;21.50;33.54;100353.44;10163735;27;65515;-70
2022/03/28 18:38:50;;;;;;;7.03;2.60;;;;;;;21.58;33.43;100355.41;10167557;27;64740;-71
2022/03/28 18:43:43;;;;;;;6.30;3.00;;;;;;;21.58;33.72;100353.47;10168103;27;66450;-71
2022/03/28 18:48:35;;;;;;;5.68;2.65;;;;;;;21.60;33.86;100348.44;10163423;27;66379;-70
2022/03/28 18:53:28;;;;;;;5.35;2.50;;;;;;;21.65;33.60;100348.28;10162754;27;66351;-70
2022/03/28 18:58:20;;;;;;;5.85;2.65;;;;;;;21.67;33.68;100342.44;10164517;27;65580;-70
2022/03/28 19:03:13;;;;;;;5.45;2.88;;;;;;;21.72;33.57;100346.97;10162782;27;65317;-68
2022/03/28 19:08:07;;;;;;;5.50;2.60;;;;;;;21.65;33.59;100358.50;10160683;27;66371;-67
2022/03/28 19:12:59;;;;;;;5.80;2.38;;;;;;;21.58;33.56;100358.97;10162149;27;66382;-71
2022/03/28 19:17:51;;;;;;;4.88;2.67;;;;;;;21.67;33.46;100353.47;10175765;27;65585;-68
2022/03/28 19:22:45;;;;;;;5.22;2.83;;;;;;;21.68;33.63;100344.88;10166415;27;66412;-69
2022/03/28 19:27:37;;;;;;;5.47;2.90;;;;;;;21.71;33.70;100353.66;10166349;27;65076;-69
2022/03/28 19:32:29;;;;;;;11.38;2.70;;;;;;;21.65;33.69;100350.22;10170126;27;65878;-65
2022/03/28 19:37:21;;;;;;;3.92;2.65;;;;;;;21.71;33.71;100351.72;10165452;27;64576;-68
2022/03/28 19:42:15;;;;;;;4.88;2.75;;;;;;;21.69;33.58;100343.75;10170457;27;65654;-64
2022/03/28 19:47:07;;;;;;;6.80;2.65;;;;;;;21.58;33.70;100356.22;10171377;27;66392;-65
2022/03/28 19:51:59;;;;;;;6.05;2.65;;;;;;;21.57;33.58;100343.56;10165238;27;66204;-66
2022/03/28 19:56:51;;;;;;;3.40;2.50;;;;;;;21.55;33.66;100339.50;10161028;28;66281;-65
2022/03/28 20:01:44;;;;;;;3.80;2.67;;;;;;;21.57;33.66;100342.75;10168803;27;66201;-64
2022/03/28 20:06:37;;;;;;;7.47;2.95;;;;;;;21.55;33.64;100337.56;10171503;27;65919;-70
2022/03/28 20:11:29;;;;;;;5.35;2.53;;;;;;;21.57;33.67;100345.50;10167926;27;66364;-64
2022/03/28 20:16:21;;;;;;;6.65;3.20;;;;;;;21.47;33.69;100343.88;10170556;27;66427;-66
2022/03/28 20:21:15;;;;;;;4.13;2.55;;;;;;;21.46;33.72;100344.19;10168154;27;65499;-65
2022/03/28 20:26:07;;;;;;;4.50;2.92;;;;;;;21.48;33.81;100337.22;10167092;27;66327;-64
2022/03/28 20:30:59;;;;;;;5.55;2.80;;;;;;;21.43;33.70;100337.34;10169859;27;66393;-65
2022/03/28 20:35:51;;;;;;;5.22;2.80;;;;;;;21.46;33.82;100338.66;10171017;27;63951;-64
2022/03/28 20:40:45;;;;;;;4.30;2.83;;;;;;;21.42;33.73;100334.91;10170422;27;65737;-64
2022/03/28 20:45:37;;;;;;;4.20;2.75;;;;;;;21.41;33.75;100331.38;10164084;28;66396;-64
2022/03/28 20:50:29;;;;;;;6.10;2.88;;;;;;;21.42;33.69;100329.41;10167237;27;65608;-64
2022/03/28 20:55:21;;;;;;;3.72;2.50;;;;;;;21.44;33.87;100321.63;10158338;27;65518;-67
